sensor_id;sensor_type;location;lat;lon;timestamp;temperature;humidity
24614;DHT22;12760;46.296;25.290;2023-05-07T00:01:17;15.40;99.90
24614;DHT22;12760;46.296;25.290;2023-05-07T00:03:43;15.30;99.90
24614;DHT22;12760;46.296;25.290;2023-05-07T00:06:09;15.30;99.90
24614;DHT22;12760;46.296;25.290;2023-05-07T00:08:38;15.40;99.90
24614;DHT22;12760;46.296;25.290;2023-05-07T00:11:04;15.40;99.90
24614;DHT22;12760;46.296;25.290;2023-05-07T00:13:30;15.10;99.90
24614;DHT22;12760;46.296;25.290;2023-05-07T00:16:04;15.00;99.90
24614;DHT22;12760;46.296;25.290;2023-05-07T00:18:30;15.10;99.90
24614;DHT22;12760;46.296;25.290;2023-05-07T00:20:55;15.30;99.90
24614;DHT22;12760;46.296;25.290;2023-05-07T00:23:22;15.30;99.90
24614;DHT22;12760;46.296;25.290;2023-05-07T00:25:48;15.20;99.90
24614;DHT22;12760;46.296;25.290;2023-05-07T00:28:13;15.20;99.90
24614;DHT22;12760;46.296;25.290;2023-05-07T00:30:39;15.20;99.90
24614;DHT22;12760;46.296;25.290;2023-05-07T00:33:05;15.20;99.90
24614;DHT22;12760;46.296;25.290;2023-05-07T00:35:31;15.10;99.90
24614;DHT22;12760;46.296;25.290;2023-05-07T00:37:57;15.00;99.90
24614;DHT22;12760;46.296;25.290;2023-05-07T00:40:22;15.10;99.90
24614;DHT22;12760;46.296;25.290;2023-05-07T00:42:48;15.20;99.90
24614;DHT22;12760;46.296;25.290;2023-05-07T00:45:15;15.30;99.90
24614;DHT22;12760;46.296;25.290;2023-05-07T00:47:41;15.30;99.90
24614;DHT22;12760;46.296;25.290;2023-05-07T00:50:08;15.40;99.90
24614;DHT22;12760;46.296;25.290;2023-05-07T00:52:35;15.50;99.90
24614;DHT22;12760;46.296;25.290;2023-05-07T00:55:05;15.60;99.90
24614;DHT22;12760;46.296;25.290;2023-05-07T00:57:40;15.50;99.90
24614;DHT22;12760;46.296;25.290;2023-05-07T01:00:08;15.60;99.90
24614;DHT22;12760;46.296;25.290;2023-05-07T01:02:41;15.50;99.90
24614;DHT22;12760;46.296;25.290;2023-05-07T01:05:12;15.40;99.90
24614;DHT22;12760;46.296;25.290;2023-05-07T01:07:40;15.40;99.90
24614;DHT22;12760;46.296;25.290;2023-05-07T01:10:08;15.40;99.90
24614;DHT22;12760;46.296;25.290;2023-05-07T01:12:36;15.40;99.90
24614;DHT22;12760;46.296;25.290;2023-05-07T01:15:03;15.20;99.90
24614;DHT22;12760;46.296;25.290;2023-05-07T01:17:36;15.20;99.90
24614;DHT22;12760;46.296;25.290;2023-05-07T01:20:01;15.20;99.90
24614;DHT22;12760;46.296;25.290;2023-05-07T01:22:34;15.20;99.90
24614;DHT22;12760;46.296;25.290;2023-05-07T01:25:05;15.30;99.90
24614;DHT22;12760;46.296;25.290;2023-05-07T01:27:31;15.30;99.90
24614;DHT22;12760;46.296;25.290;2023-05-07T01:29:59;15.20;99.90
24614;DHT22;12760;46.296;25.290;2023-05-07T01:32:45;15.10;99.90
24614;DHT22;12760;46.296;25.290;2023-05-07T01:35:18;15.20;99.90
24614;DHT22;12760;46.296;25.290;2023-05-07T01:37:45;15.20;99.90
24614;DHT22;12760;46.296;25.290;2023-05-07T01:40:12;15.10;99.90
24614;DHT22;12760;46.296;25.290;2023-05-07T01:42:38;15.20;99.90
24614;DHT22;12760;46.296;25.290;2023-05-07T01:45:04;15.20;99.90
24614;DHT22;12760;46.296;25.290;2023-05-07T01:47:30;15.00;99.90
24614;DHT22;12760;46.296;25.290;2023-05-07T01:49:57;15.10;99.90
24614;DHT22;12760;46.296;25.290;2023-05-07T01:52:23;15.20;99.90
24614;DHT22;12760;46.296;25.290;2023-05-07T01:54:50;15.30;99.90
24614;DHT22;12760;46.296;25.290;2023-05-07T01:57:16;15.30;99.90
24614;DHT22;12760;46.296;25.290;2023-05-07T01:59:41;15.40;99.90
24614;DHT22;12760;46.296;25.290;2023-05-07T02:02:07;15.20;99.90
24614;DHT22;12760;46.296;25.290;2023-05-07T02:04:33;15.20;99.90
24614;DHT22;12760;46.296;25.290;2023-05-07T02:06:58;15.20;99.90
24614;DHT22;12760;46.296;25.290;2023-05-07T02:09:24;15.20;99.90
24614;DHT22;12760;46.296;25.290;2023-05-07T02:11:50;15.10;99.90
24614;DHT22;12760;46.296;25.290;2023-05-07T02:14:15;15.10;99.90
24614;DHT22;12760;46.296;25.290;2023-05-07T02:16:41;15.10;99.90
24614;DHT22;12760;46.296;25.290;2023-05-07T02:19:07;15.10;99.90
24614;DHT22;12760;46.296;25.290;2023-05-07T02:21:33;15.10;99.90
24614;DHT22;12760;46.296;25.290;2023-05-07T02:23:58;15.00;99.90
24614;DHT22;12760;46.296;25.290;2023-05-07T02:26:24;15.00;99.90
24614;DHT22;12760;46.296;25.290;2023-05-07T02:28:51;14.90;99.90
24614;DHT22;12760;46.296;25.290;2023-05-07T02:31:17;14.90;99.90
24614;DHT22;12760;46.296;25.290;2023-05-07T02:33:43;14.90;99.90
24614;DHT22;12760;46.296;25.290;2023-05-07T02:36:12;14.90;99.90
24614;DHT22;12760;46.296;25.290;2023-05-07T02:38:38;14.90;99.90
24614;DHT22;12760;46.296;25.290;2023-05-07T02:41:04;14.90;99.90
24614;DHT22;12760;46.296;25.290;2023-05-07T02:43:30;15.00;99.90
24614;DHT22;12760;46.296;25.290;2023-05-07T02:46:06;15.10;99.90
24614;DHT22;12760;46.296;25.290;2023-05-07T02:48:33;15.10;99.90
24614;DHT22;12760;46.296;25.290;2023-05-07T02:50:59;15.20;99.90
24614;DHT22;12760;46.296;25.290;2023-05-07T02:53:25;15.20;99.90
24614;DHT22;12760;46.296;25.290;2023-05-07T02:55:56;15.10;99.90
24614;DHT22;12760;46.296;25.290;2023-05-07T02:58:22;15.10;99.90
24614;DHT22;12760;46.296;25.290;2023-05-07T03:00:48;15.10;99.90
24614;DHT22;12760;46.296;25.290;2023-05-07T03:03:14;15.20;99.90
24614;DHT22;12760;46.296;25.290;2023-05-07T03:05:40;15.20;99.90
24614;DHT22;12760;46.296;25.290;2023-05-07T03:08:06;15.30;99.90
24614;DHT22;12760;46.296;25.290;2023-05-07T03:10:32;15.20;99.90
24614;DHT22;12760;46.296;25.290;2023-05-07T03:12:57;15.20;99.90
24614;DHT22;12760;46.296;25.290;2023-05-07T03:15:23;15.10;99.90
24614;DHT22;12760;46.296;25.290;2023-05-07T03:17:49;15.10;99.90
24614;DHT22;12760;46.296;25.290;2023-05-07T03:20:15;15.10;99.90
24614;DHT22;12760;46.296;25.290;2023-05-07T03:22:40;15.00;99.90
24614;DHT22;12760;46.296;25.290;2023-05-07T03:25:07;15.00;99.90
24614;DHT22;12760;46.296;25.290;2023-05-07T03:27:33;15.10;99.90
24614;DHT22;12760;46.296;25.290;2023-05-07T03:29:59;15.10;99.90
24614;DHT22;12760;46.296;25.290;2023-05-07T03:32:25;15.10;99.90
24614;DHT22;12760;46.296;25.290;2023-05-07T03:34:50;15.10;99.90
24614;DHT22;12760;46.296;25.290;2023-05-07T03:37:16;15.10;99.90
24614;DHT22;12760;46.296;25.290;2023-05-07T03:39:42;15.10;99.90
24614;DHT22;12760;46.296;25.290;2023-05-07T03:42:07;15.00;99.90
24614;DHT22;12760;46.296;25.290;2023-05-07T03:44:33;15.10;99.90
24614;DHT22;12760;46.296;25.290;2023-05-07T03:46:59;14.90;99.90
24614;DHT22;12760;46.296;25.290;2023-05-07T03:49:24;15.00;99.90
24614;DHT22;12760;46.296;25.290;2023-05-07T03:51:50;15.10;99.90
24614;DHT22;12760;46.296;25.290;2023-05-07T03:54:16;15.10;99.90
24614;DHT22;12760;46.296;25.290;2023-05-07T03:56:41;15.10;99.90
24614;DHT22;12760;46.296;25.290;2023-05-07T03:59:07;15.00;99.90
24614;DHT22;12760;46.296;25.290;2023-05-07T04:01:33;15.00;99.90
24614;DHT22;12760;46.296;25.290;2023-05-07T04:03:59;15.00;99.90
24614;DHT22;12760;46.296;25.290;2023-05-07T04:06:24;15.00;99.90
24614;DHT22;12760;46.296;25.290;2023-05-07T04:08:50;15.10;99.90
24614;DHT22;12760;46.296;25.290;2023-05-07T04:11:16;15.20;99.90
24614;DHT22;12760;46.296;25.290;2023-05-07T04:13:42;15.20;99.90
24614;DHT22;12760;46.296;25.290;2023-05-07T04:16:07;15.20;99.90
24614;DHT22;12760;46.296;25.290;2023-05-07T04:18:33;15.30;99.90
24614;DHT22;12760;46.296;25.290;2023-05-07T04:20:59;15.30;99.90
24614;DHT22;12760;46.296;25.290;2023-05-07T04:23:25;15.40;99.90
24614;DHT22;12760;46.296;25.290;2023-05-07T04:25:50;15.40;99.90
24614;DHT22;12760;46.296;25.290;2023-05-07T04:28:17;15.40;99.90
24614;DHT22;12760;46.296;25.290;2023-05-07T04:30:43;15.40;99.90
24614;DHT22;12760;46.296;25.290;2023-05-07T04:33:09;15.50;99.90
24614;DHT22;12760;46.296;25.290;2023-05-07T04:35:35;15.50;99.90
24614;DHT22;12760;46.296;25.290;2023-05-07T04:38:01;15.40;99.90
24614;DHT22;12760;46.296;25.290;2023-05-07T04:40:27;15.50;99.90
24614;DHT22;12760;46.296;25.290;2023-05-07T04:42:52;15.50;99.90
24614;DHT22;12760;46.296;25.290;2023-05-07T04:45:18;15.50;99.90
24614;DHT22;12760;46.296;25.290;2023-05-07T04:47:44;15.60;99.90
24614;DHT22;12760;46.296;25.290;2023-05-07T04:50:10;15.60;99.90
24614;DHT22;12760;46.296;25.290;2023-05-07T04:52:36;15.60;99.90
24614;DHT22;12760;46.296;25.290;2023-05-07T04:55:02;15.60;99.90
24614;DHT22;12760;46.296;25.290;2023-05-07T04:57:28;15.60;99.90
24614;DHT22;12760;46.296;25.290;2023-05-07T04:59:54;15.60;99.90
24614;DHT22;12760;46.296;25.290;2023-05-07T05:02:19;15.60;99.90
24614;DHT22;12760;46.296;25.290;2023-05-07T05:04:45;15.60;99.90
24614;DHT22;12760;46.296;25.290;2023-05-07T05:07:11;15.50;99.90
24614;DHT22;12760;46.296;25.290;2023-05-07T05:09:37;15.60;99.90
24614;DHT22;12760;46.296;25.290;2023-05-07T05:12:03;15.60;99.90
24614;DHT22;12760;46.296;25.290;2023-05-07T05:14:29;15.70;99.90
24614;DHT22;12760;46.296;25.290;2023-05-07T05:16:55;15.70;99.90
24614;DHT22;12760;46.296;25.290;2023-05-07T05:19:20;15.70;99.90
24614;DHT22;12760;46.296;25.290;2023-05-07T05:21:46;15.70;99.90
24614;DHT22;12760;46.296;25.290;2023-05-07T05:24:12;15.70;99.90
24614;DHT22;12760;46.296;25.290;2023-05-07T05:26:38;15.80;99.90
24614;DHT22;12760;46.296;25.290;2023-05-07T05:29:03;15.80;99.90
24614;DHT22;12760;46.296;25.290;2023-05-07T05:31:29;15.90;99.90
24614;DHT22;12760;46.296;25.290;2023-05-07T05:33:55;15.90;99.90
24614;DHT22;12760;46.296;25.290;2023-05-07T05:36:20;15.90;99.90
24614;DHT22;12760;46.296;25.290;2023-05-07T05:38:46;15.90;99.90
24614;DHT22;12760;46.296;25.290;2023-05-07T05:41:12;15.90;99.90
24614;DHT22;12760;46.296;25.290;2023-05-07T05:43:38;15.90;99.90
24614;DHT22;12760;46.296;25.290;2023-05-07T05:46:03;16.00;99.90
24614;DHT22;12760;46.296;25.290;2023-05-07T05:48:30;16.10;99.90
24614;DHT22;12760;46.296;25.290;2023-05-07T05:50:56;16.10;99.90
24614;DHT22;12760;46.296;25.290;2023-05-07T05:53:21;16.10;99.90
24614;DHT22;12760;46.296;25.290;2023-05-07T05:55:47;16.10;99.90
24614;DHT22;12760;46.296;25.290;2023-05-07T05:58:13;16.10;99.90
24614;DHT22;12760;46.296;25.290;2023-05-07T06:00:40;16.20;99.90
24614;DHT22;12760;46.296;25.290;2023-05-07T06:03:06;16.30;99.90
24614;DHT22;12760;46.296;25.290;2023-05-07T06:05:32;16.20;99.90
24614;DHT22;12760;46.296;25.290;2023-05-07T06:07:57;16.20;99.90
24614;DHT22;12760;46.296;25.290;2023-05-07T06:10:23;16.30;99.90
24614;DHT22;12760;46.296;25.290;2023-05-07T06:12:49;16.40;99.90
24614;DHT22;12760;46.296;25.290;2023-05-07T06:15:15;16.40;99.90
24614;DHT22;12760;46.296;25.290;2023-05-07T06:17:41;16.40;99.90
24614;DHT22;12760;46.296;25.290;2023-05-07T06:20:07;16.40;99.90
24614;DHT22;12760;46.296;25.290;2023-05-07T06:22:33;16.50;99.90
24614;DHT22;12760;46.296;25.290;2023-05-07T06:24:58;16.50;99.90
24614;DHT22;12760;46.296;25.290;2023-05-07T06:27:24;16.50;99.90
24614;DHT22;12760;46.296;25.290;2023-05-07T06:29:50;16.50;99.90
24614;DHT22;12760;46.296;25.290;2023-05-07T06:32:16;16.50;99.90
24614;DHT22;12760;46.296;25.290;2023-05-07T06:34:42;16.50;99.90
24614;DHT22;12760;46.296;25.290;2023-05-07T06:37:08;16.60;99.90
24614;DHT22;12760;46.296;25.290;2023-05-07T06:39:34;16.70;99.90
24614;DHT22;12760;46.296;25.290;2023-05-07T06:42:03;16.80;99.90
24614;DHT22;12760;46.296;25.290;2023-05-07T06:44:30;16.90;99.90
24614;DHT22;12760;46.296;25.290;2023-05-07T06:46:56;16.90;99.90
24614;DHT22;12760;46.296;25.290;2023-05-07T06:49:22;17.00;99.90
24614;DHT22;12760;46.296;25.290;2023-05-07T06:51:48;17.10;99.90
24614;DHT22;12760;46.296;25.290;2023-05-07T06:54:13;17.20;99.90
24614;DHT22;12760;46.296;25.290;2023-05-07T06:56:39;17.30;99.90
24614;DHT22;12760;46.296;25.290;2023-05-07T06:59:06;17.30;99.90
24614;DHT22;12760;46.296;25.290;2023-05-07T07:01:32;17.40;99.90
24614;DHT22;12760;46.296;25.290;2023-05-07T07:03:58;17.40;99.30
24614;DHT22;12760;46.296;25.290;2023-05-07T07:06:23;17.50;99.70
24614;DHT22;12760;46.296;25.290;2023-05-07T07:08:49;17.50;99.40
24614;DHT22;12760;46.296;25.290;2023-05-07T07:11:15;17.60;99.60
24614;DHT22;12760;46.296;25.290;2023-05-07T07:13:41;17.60;98.80
24614;DHT22;12760;46.296;25.290;2023-05-07T07:16:08;17.50;99.80
24614;DHT22;12760;46.296;25.290;2023-05-07T07:18:34;17.50;99.80
24614;DHT22;12760;46.296;25.290;2023-05-07T07:20:59;17.60;99.50
24614;DHT22;12760;46.296;25.290;2023-05-07T07:23:25;17.60;99.60
24614;DHT22;12760;46.296;25.290;2023-05-07T07:25:51;17.70;99.90
24614;DHT22;12760;46.296;25.290;2023-05-07T07:28:17;17.80;98.90
24614;DHT22;12760;46.296;25.290;2023-05-07T07:30:43;17.70;98.60
24614;DHT22;12760;46.296;25.290;2023-05-07T07:33:09;17.70;99.40
24614;DHT22;12760;46.296;25.290;2023-05-07T07:35:35;17.80;99.40
24614;DHT22;12760;46.296;25.290;2023-05-07T07:38:01;17.80;98.90
24614;DHT22;12760;46.296;25.290;2023-05-07T07:40:27;17.90;99.20
24614;DHT22;12760;46.296;25.290;2023-05-07T07:42:53;17.90;98.90
24614;DHT22;12760;46.296;25.290;2023-05-07T07:45:19;17.90;98.90
24614;DHT22;12760;46.296;25.290;2023-05-07T07:47:44;18.00;98.90
24614;DHT22;12760;46.296;25.290;2023-05-07T07:50:10;18.00;99.10
24614;DHT22;12760;46.296;25.290;2023-05-07T07:52:36;18.00;99.00
24614;DHT22;12760;46.296;25.290;2023-05-07T07:55:03;18.10;99.50
24614;DHT22;12760;46.296;25.290;2023-05-07T07:57:29;18.10;98.80
24614;DHT22;12760;46.296;25.290;2023-05-07T07:59:54;18.10;98.90
24614;DHT22;12760;46.296;25.290;2023-05-07T08:02:20;18.10;98.70
24614;DHT22;12760;46.296;25.290;2023-05-07T08:04:46;18.20;98.90
24614;DHT22;12760;46.296;25.290;2023-05-07T08:07:12;18.30;98.70
24614;DHT22;12760;46.296;25.290;2023-05-07T08:09:39;18.30;98.90
24614;DHT22;12760;46.296;25.290;2023-05-07T08:12:06;18.40;98.60
24614;DHT22;12760;46.296;25.290;2023-05-07T08:14:33;18.40;98.40
24614;DHT22;12760;46.296;25.290;2023-05-07T08:16:59;18.40;99.10
24614;DHT22;12760;46.296;25.290;2023-05-07T08:19:25;18.60;98.70
24614;DHT22;12760;46.296;25.290;2023-05-07T08:21:50;18.70;99.10
24614;DHT22;12760;46.296;25.290;2023-05-07T08:24:17;18.70;98.10
24614;DHT22;12760;46.296;25.290;2023-05-07T08:26:43;18.80;98.40
24614;DHT22;12760;46.296;25.290;2023-05-07T08:29:09;19.00;98.80
24614;DHT22;12760;46.296;25.290;2023-05-07T08:31:35;19.30;97.70
24614;DHT22;12760;46.296;25.290;2023-05-07T08:34:01;19.30;97.30
24614;DHT22;12760;46.296;25.290;2023-05-07T08:36:26;19.20;97.00
24614;DHT22;12760;46.296;25.290;2023-05-07T08:38:53;19.00;97.10
24614;DHT22;12760;46.296;25.290;2023-05-07T08:41:20;19.00;97.30
24614;DHT22;12760;46.296;25.290;2023-05-07T08:43:48;19.00;96.90
24614;DHT22;12760;46.296;25.290;2023-05-07T08:46:18;19.20;98.10
24614;DHT22;12760;46.296;25.290;2023-05-07T08:48:47;19.30;97.10
24614;DHT22;12760;46.296;25.290;2023-05-07T08:51:14;19.30;97.90
24614;DHT22;12760;46.296;25.290;2023-05-07T08:53:41;19.30;97.40
24614;DHT22;12760;46.296;25.290;2023-05-07T08:56:09;19.40;97.70
24614;DHT22;12760;46.296;25.290;2023-05-07T08:58:35;19.50;97.70
24614;DHT22;12760;46.296;25.290;2023-05-07T09:01:07;19.70;97.30
24614;DHT22;12760;46.296;25.290;2023-05-07T09:03:34;19.70;96.70
24614;DHT22;12760;46.296;25.290;2023-05-07T09:05:59;19.60;97.00
24614;DHT22;12760;46.296;25.290;2023-05-07T09:08:27;19.60;97.20
24614;DHT22;12760;46.296;25.290;2023-05-07T09:10:53;19.60;97.40
24614;DHT22;12760;46.296;25.290;2023-05-07T09:13:19;19.70;96.90
24614;DHT22;12760;46.296;25.290;2023-05-07T09:15:45;19.80;96.60
24614;DHT22;12760;46.296;25.290;2023-05-07T09:18:11;19.80;96.60
24614;DHT22;12760;46.296;25.290;2023-05-07T09:20:37;19.80;96.30
24614;DHT22;12760;46.296;25.290;2023-05-07T09:23:03;19.80;96.60
24614;DHT22;12760;46.296;25.290;2023-05-07T09:25:34;19.80;96.80
24614;DHT22;12760;46.296;25.290;2023-05-07T09:28:01;19.80;96.50
24614;DHT22;12760;46.296;25.290;2023-05-07T09:30:30;19.90;96.80
24614;DHT22;12760;46.296;25.290;2023-05-07T09:33:01;19.80;96.60
24614;DHT22;12760;46.296;25.290;2023-05-07T09:35:27;19.80;96.40
24614;DHT22;12760;46.296;25.290;2023-05-07T09:37:58;19.90;96.30
24614;DHT22;12760;46.296;25.290;2023-05-07T09:40:25;20.00;96.80
24614;DHT22;12760;46.296;25.290;2023-05-07T09:42:52;20.10;96.80
24614;DHT22;12760;46.296;25.290;2023-05-07T09:45:28;20.20;95.90
24614;DHT22;12760;46.296;25.290;2023-05-07T09:47:58;20.20;95.90
24614;DHT22;12760;46.296;25.290;2023-05-07T09:50:29;20.00;95.70
24614;DHT22;12760;46.296;25.290;2023-05-07T09:52:56;20.10;96.50
24614;DHT22;12760;46.296;25.290;2023-05-07T09:55:22;20.20;96.60
24614;DHT22;12760;46.296;25.290;2023-05-07T09:57:51;20.40;96.70
24614;DHT22;12760;46.296;25.290;2023-05-07T10:00:19;20.50;96.00
24614;DHT22;12760;46.296;25.290;2023-05-07T10:02:51;20.60;96.00
24614;DHT22;12760;46.296;25.290;2023-05-07T10:05:21;20.80;96.40
24614;DHT22;12760;46.296;25.290;2023-05-07T10:07:47;20.90;95.60
24614;DHT22;12760;46.296;25.290;2023-05-07T10:10:14;21.10;96.00
24614;DHT22;12760;46.296;25.290;2023-05-07T10:12:41;21.10;95.40
24614;DHT22;12760;46.296;25.290;2023-05-07T10:15:08;21.20;95.80
24614;DHT22;12760;46.296;25.290;2023-05-07T10:17:38;21.10;95.60
24614;DHT22;12760;46.296;25.290;2023-05-07T10:20:06;21.20;95.50
24614;DHT22;12760;46.296;25.290;2023-05-07T10:22:44;21.10;95.70
24614;DHT22;12760;46.296;25.290;2023-05-07T10:25:16;21.10;95.60
24614;DHT22;12760;46.296;25.290;2023-05-07T10:27:46;21.20;95.70
24614;DHT22;12760;46.296;25.290;2023-05-07T10:32:53;21.10;96.10
24614;DHT22;12760;46.296;25.290;2023-05-07T10:35:24;21.20;95.80
24614;DHT22;12760;46.296;25.290;2023-05-07T10:37:51;21.20;96.60
24614;DHT22;12760;46.296;25.290;2023-05-07T10:40:17;21.30;96.30
24614;DHT22;12760;46.296;25.290;2023-05-07T10:43:04;21.40;96.20
24614;DHT22;12760;46.296;25.290;2023-05-07T10:45:32;21.40;96.10
24614;DHT22;12760;46.296;25.290;2023-05-07T10:48:15;21.50;96.50
24614;DHT22;12760;46.296;25.290;2023-05-07T10:50:42;21.50;96.00
24614;DHT22;12760;46.296;25.290;2023-05-07T10:55:45;21.10;96.20
24614;DHT22;12760;46.296;25.290;2023-05-07T10:58:29;21.10;96.50
24614;DHT22;12760;46.296;25.290;2023-05-07T11:01:00;21.20;96.40
24614;DHT22;12760;46.296;25.290;2023-05-07T11:03:27;21.10;96.40
24614;DHT22;12760;46.296;25.290;2023-05-07T11:06:11;21.10;96.40
24614;DHT22;12760;46.296;25.290;2023-05-07T11:08:57;21.10;95.90
24614;DHT22;12760;46.296;25.290;2023-05-07T11:11:48;21.10;96.50
24614;DHT22;12760;46.296;25.290;2023-05-07T11:17:08;21.10;96.00
24614;DHT22;12760;46.296;25.290;2023-05-07T11:19:54;21.10;96.00
24614;DHT22;12760;46.296;25.290;2023-05-07T11:25:06;21.10;95.70
24614;DHT22;12760;46.296;25.290;2023-05-07T11:27:33;21.10;95.90
24614;DHT22;12760;46.296;25.290;2023-05-07T11:29:59;21.00;95.80
24614;DHT22;12760;46.296;25.290;2023-05-07T11:32:30;20.80;95.90
24614;DHT22;12760;46.296;25.290;2023-05-07T11:34:58;20.70;96.30
24614;DHT22;12760;46.296;25.290;2023-05-07T11:37:25;20.60;96.10
24614;DHT22;12760;46.296;25.290;2023-05-07T11:40:05;20.50;96.50
24614;DHT22;12760;46.296;25.290;2023-05-07T11:42:39;20.50;96.80
24614;DHT22;12760;46.296;25.290;2023-05-07T11:45:06;20.40;96.90
24614;DHT22;12760;46.296;25.290;2023-05-07T11:47:33;20.30;97.20
24614;DHT22;12760;46.296;25.290;2023-05-07T11:50:05;20.20;97.40
24614;DHT22;12760;46.296;25.290;2023-05-07T11:52:31;20.20;97.50
24614;DHT22;12760;46.296;25.290;2023-05-07T11:54:59;20.20;98.00
24614;DHT22;12760;46.296;25.290;2023-05-07T11:57:26;20.20;98.70
24614;DHT22;12760;46.296;25.290;2023-05-07T11:59:59;20.20;98.80
24614;DHT22;12760;46.296;25.290;2023-05-07T12:02:28;20.10;99.10
24614;DHT22;12760;46.296;25.290;2023-05-07T12:04:54;20.00;99.90
24614;DHT22;12760;46.296;25.290;2023-05-07T12:07:24;19.90;99.90
24614;DHT22;12760;46.296;25.290;2023-05-07T12:09:50;19.70;99.90
24614;DHT22;12760;46.296;25.290;2023-05-07T12:12:15;19.60;99.90
24614;DHT22;12760;46.296;25.290;2023-05-07T12:14:44;19.60;99.90
24614;DHT22;12760;46.296;25.290;2023-05-07T12:17:14;19.50;99.90
24614;DHT22;12760;46.296;25.290;2023-05-07T12:19:42;19.40;99.90
24614;DHT22;12760;46.296;25.290;2023-05-07T12:22:08;19.30;99.90
24614;DHT22;12760;46.296;25.290;2023-05-07T12:24:48;19.30;99.90
24614;DHT22;12760;46.296;25.290;2023-05-07T12:27:15;19.30;99.90
24614;DHT22;12760;46.296;25.290;2023-05-07T12:29:48;19.20;99.90
24614;DHT22;12760;46.296;25.290;2023-05-07T12:32:16;19.20;99.90
24614;DHT22;12760;46.296;25.290;2023-05-07T12:34:42;19.00;99.90
24614;DHT22;12760;46.296;25.290;2023-05-07T12:37:08;19.00;99.90
24614;DHT22;12760;46.296;25.290;2023-05-07T12:39:34;18.90;99.90
24614;DHT22;12760;46.296;25.290;2023-05-07T12:42:00;18.90;99.90
24614;DHT22;12760;46.296;25.290;2023-05-07T12:44:29;18.90;99.90
24614;DHT22;12760;46.296;25.290;2023-05-07T12:46:55;18.90;99.90
24614;DHT22;12760;46.296;25.290;2023-05-07T12:49:21;19.00;99.90
24614;DHT22;12760;46.296;25.290;2023-05-07T12:51:47;18.90;99.90
24614;DHT22;12760;46.296;25.290;2023-05-07T12:54:14;18.90;99.90
24614;DHT22;12760;46.296;25.290;2023-05-07T12:57:04;18.90;99.90
24614;DHT22;12760;46.296;25.290;2023-05-07T12:59:37;18.90;99.90
24614;DHT22;12760;46.296;25.290;2023-05-07T13:02:04;18.90;99.90
24614;DHT22;12760;46.296;25.290;2023-05-07T13:04:30;18.90;99.90
24614;DHT22;12760;46.296;25.290;2023-05-07T13:06:56;18.90;99.90
24614;DHT22;12760;46.296;25.290;2023-05-07T13:09:22;18.80;99.90
24614;DHT22;12760;46.296;25.290;2023-05-07T13:11:47;18.80;99.90
24614;DHT22;12760;46.296;25.290;2023-05-07T13:14:13;18.80;99.90
24614;DHT22;12760;46.296;25.290;2023-05-07T13:16:39;18.80;99.90
24614;DHT22;12760;46.296;25.290;2023-05-07T13:19:05;18.80;99.90
24614;DHT22;12760;46.296;25.290;2023-05-07T13:21:30;18.80;99.90
24614;DHT22;12760;46.296;25.290;2023-05-07T13:23:59;18.90;99.90
24614;DHT22;12760;46.296;25.290;2023-05-07T13:26:25;18.90;99.90
24614;DHT22;12760;46.296;25.290;2023-05-07T13:28:52;18.90;99.90
24614;DHT22;12760;46.296;25.290;2023-05-07T13:31:18;18.90;99.90
24614;DHT22;12760;46.296;25.290;2023-05-07T13:33:43;18.90;99.90
24614;DHT22;12760;46.296;25.290;2023-05-07T13:36:09;18.80;99.90
24614;DHT22;12760;46.296;25.290;2023-05-07T13:38:35;18.80;99.90
24614;DHT22;12760;46.296;25.290;2023-05-07T13:41:01;18.90;99.90
24614;DHT22;12760;46.296;25.290;2023-05-07T13:43:27;18.80;99.90
24614;DHT22;12760;46.296;25.290;2023-05-07T13:45:52;18.70;99.90
24614;DHT22;12760;46.296;25.290;2023-05-07T13:48:18;18.80;99.90
24614;DHT22;12760;46.296;25.290;2023-05-07T13:50:44;18.80;99.90
24614;DHT22;12760;46.296;25.290;2023-05-07T13:53:09;18.80;99.90
24614;DHT22;12760;46.296;25.290;2023-05-07T13:55:35;18.70;99.90
24614;DHT22;12760;46.296;25.290;2023-05-07T13:58:02;18.60;99.90
24614;DHT22;12760;46.296;25.290;2023-05-07T14:00:29;18.70;99.90
24614;DHT22;12760;46.296;25.290;2023-05-07T14:02:55;18.70;99.90
24614;DHT22;12760;46.296;25.290;2023-05-07T14:05:22;18.70;99.90
24614;DHT22;12760;46.296;25.290;2023-05-07T14:07:54;18.70;99.90
24614;DHT22;12760;46.296;25.290;2023-05-07T14:10:20;18.80;99.90
24614;DHT22;12760;46.296;25.290;2023-05-07T14:12:46;18.80;99.90
24614;DHT22;12760;46.296;25.290;2023-05-07T14:15:12;18.70;99.90
24614;DHT22;12760;46.296;25.290;2023-05-07T14:17:38;18.70;99.90
24614;DHT22;12760;46.296;25.290;2023-05-07T14:20:04;18.70;99.90
24614;DHT22;12760;46.296;25.290;2023-05-07T14:22:32;18.70;99.90
24614;DHT22;12760;46.296;25.290;2023-05-07T14:24:57;18.70;99.90
24614;DHT22;12760;46.296;25.290;2023-05-07T14:27:23;18.70;99.90
24614;DHT22;12760;46.296;25.290;2023-05-07T14:29:49;18.80;99.90
24614;DHT22;12760;46.296;25.290;2023-05-07T14:32:19;18.80;99.90
24614;DHT22;12760;46.296;25.290;2023-05-07T14:34:45;18.80;99.90
24614;DHT22;12760;46.296;25.290;2023-05-07T14:37:11;18.90;99.90
24614;DHT22;12760;46.296;25.290;2023-05-07T14:39:37;18.90;99.90
24614;DHT22;12760;46.296;25.290;2023-05-07T14:42:03;18.90;99.90
24614;DHT22;12760;46.296;25.290;2023-05-07T14:44:28;18.90;99.90
24614;DHT22;12760;46.296;25.290;2023-05-07T14:46:54;19.00;99.90
24614;DHT22;12760;46.296;25.290;2023-05-07T14:49:20;19.10;99.90
24614;DHT22;12760;46.296;25.290;2023-05-07T14:51:47;19.00;99.90
24614;DHT22;12760;46.296;25.290;2023-05-07T14:54:13;19.10;99.90
24614;DHT22;12760;46.296;25.290;2023-05-07T14:56:39;19.10;99.90
24614;DHT22;12760;46.296;25.290;2023-05-07T14:59:05;19.20;99.90
24614;DHT22;12760;46.296;25.290;2023-05-07T15:01:32;19.00;99.90
24614;DHT22;12760;46.296;25.290;2023-05-07T15:03:58;19.00;99.90
24614;DHT22;12760;46.296;25.290;2023-05-07T15:06:23;19.00;99.90
24614;DHT22;12760;46.296;25.290;2023-05-07T15:08:49;19.10;99.90
24614;DHT22;12760;46.296;25.290;2023-05-07T15:11:15;19.10;99.90
24614;DHT22;12760;46.296;25.290;2023-05-07T15:13:44;19.10;99.90
24614;DHT22;12760;46.296;25.290;2023-05-07T15:16:10;19.20;99.90
24614;DHT22;12760;46.296;25.290;2023-05-07T15:18:36;19.20;99.90
24614;DHT22;12760;46.296;25.290;2023-05-07T15:21:02;19.20;99.90
24614;DHT22;12760;46.296;25.290;2023-05-07T15:23:27;19.20;99.90
24614;DHT22;12760;46.296;25.290;2023-05-07T15:25:56;19.20;99.90